Time;durP1;ratioP1;P1;durP2;ratioP2;P2;SDS_P1;SDS_P2;PMS_P1;PMS_P2;Temp;Humidity;BMP_temperature;BMP_pressure;BME280_temperature;BME280_humidity;BME280_pressure;Samples;Min_cycle;Max_cycle;Signal;HPM_P1;HPM_P2
2021/09/27 00:00:55;;;;;;;12.27;9.70;;;19.20;78.80;;;;;;5100404;28;20764;-92
2021/09/27 00:03:20;;;;;;;16.17;11.00;;;19.20;79.00;;;;;;5097095;28;20821;-91
2021/09/27 00:05:47;;;;;;;12.63;9.37;;;19.20;79.00;;;;;;5101706;28;20168;-92
2021/09/27 00:08:13;;;;;;;14.77;11.50;;;19.20;79.30;;;;;;5100038;28;20183;-92
2021/09/27 00:10:49;;;;;;;18.40;11.63;;;19.20;79.40;;;;;;5101906;28;20171;-92
2021/09/27 00:13:16;;;;;;;14.23;11.45;;;19.10;79.50;;;;;;5101651;28;20198;-92
2021/09/27 00:16:01;;;;;;;14.45;10.10;;;19.10;79.70;;;;;;5097772;28;20270;-91
2021/09/27 00:18:27;;;;;;;16.45;10.90;;;19.20;79.60;;;;;;5101813;28;20182;-91
2021/09/27 00:20:57;;;;;;;15.70;10.65;;;19.20;79.40;;;;;;5097343;28;20183;-92
2021/09/27 00:23:25;;;;;;;18.95;11.02;;;19.30;79.40;;;;;;5096532;28;20207;-91
2021/09/27 00:25:51;;;;;;;16.45;12.07;;;19.20;79.30;;;;;;5100670;28;20180;-91
2021/09/27 00:28:17;;;;;;;18.50;10.95;;;19.20;79.50;;;;;;5102392;28;20189;-90
2021/09/27 00:30:43;;;;;;;17.27;11.52;;;19.10;79.70;;;;;;5103506;28;20668;-90
2021/09/27 00:33:10;;;;;;;17.00;12.70;;;19.00;80.00;;;;;;5119588;28;20202;-91
2021/09/27 00:35:57;;;;;;;18.45;11.88;;;18.90;80.70;;;;;;5123102;28;20191;-91
2021/09/27 00:38:25;;;;;;;14.57;11.23;;;18.80;81.00;;;;;;5123968;28;20179;-91
2021/09/27 00:40:58;;;;;;;18.40;11.88;;;18.90;81.10;;;;;;5119661;28;20186;-91
2021/09/27 00:43:25;;;;;;;18.23;12.07;;;18.90;81.20;;;;;;5121433;28;20291;-91
2021/09/27 00:45:56;;;;;;;15.00;12.00;;;18.90;81.30;;;;;;5120195;28;20175;-91
2021/09/27 00:48:23;;;;;;;18.58;11.07;;;18.80;81.50;;;;;;5122884;28;20593;-90
2021/09/27 00:50:53;;;;;;;21.45;10.98;;;18.90;81.80;;;;;;5122663;28;20183;-91
2021/09/27 00:53:24;;;;;;;17.92;11.73;;;18.90;81.70;;;;;;5122752;28;20289;-91
2021/09/27 00:55:51;;;;;;;14.75;12.60;;;18.90;81.60;;;;;;5106652;28;20262;-91
2021/09/27 00:58:20;;;;;;;18.00;12.65;;;19.10;81.40;;;;;;5103857;28;20179;-91
2021/09/27 01:00:46;;;;;;;17.45;12.35;;;19.30;80.70;;;;;;5102598;28;20246;-91
2021/09/27 01:03:12;;;;;;;21.02;13.02;;;19.20;80.20;;;;;;5102250;28;20246;-91
2021/09/27 01:06:09;;;;;;;20.08;12.98;;;19.00;80.70;;;;;;5099808;28;20175;-91
2021/09/27 01:09:04;;;;;;;23.33;14.10;;;18.80;81.70;;;;;;5118140;28;20262;-91
2021/09/27 01:11:56;;;;;;;23.05;13.80;;;18.70;82.60;;;;;;5115699;28;20269;-91
2021/09/27 01:14:40;;;;;;;17.73;11.60;;;18.60;83.20;;;;;;5116924;28;20195;-91
2021/09/27 01:17:37;;;;;;;20.15;14.35;;;18.50;83.70;;;;;;5116929;28;20206;-91
2021/09/27 01:20:24;;;;;;;24.88;13.55;;;18.40;84.00;;;;;;5078732;28;20183;-91
2021/09/27 01:23:11;;;;;;;20.42;14.50;;;18.50;84.20;;;;;;5078619;28;20203;-91
2021/09/27 01:25:52;;;;;;;16.92;12.95;;;18.50;84.20;;;;;;5079623;28;20171;-91
2021/09/27 01:29:06;;;;;;;23.60;13.93;;;18.50;83.90;;;;;;5081417;28;20191;-91
2021/09/27 01:31:57;;;;;;;19.92;13.60;;;18.70;83.60;;;;;;5024261;28;20190;-91
2021/09/27 01:35:02;;;;;;;23.02;15.40;;;18.60;83.30;;;;;;5091882;28;20208;-92
2021/09/27 01:37:38;;;;;;;22.67;15.18;;;18.80;82.90;;;;;;5072699;28;20190;-92
2021/09/27 01:40:22;;;;;;;24.27;14.13;;;18.80;82.40;;;;;;5117769;28;20178;-91
2021/09/27 01:43:03;;;;;;;23.73;15.00;;;18.80;82.00;;;;;;5115347;28;20615;-91
2021/09/27 01:45:32;;;;;;;26.48;17.15;;;18.80;82.00;;;;;;5117890;28;20641;-91
2021/09/27 01:48:21;;;;;;;26.70;16.40;;;18.90;81.90;;;;;;5115665;28;20180;-91
2021/09/27 01:50:54;;;;;;;21.17;15.90;;;18.80;81.80;;;;;;5093475;28;20221;-91
2021/09/27 01:53:28;;;;;;;24.67;17.80;;;18.60;82.10;;;;;;5081258;28;20713;-91
2021/09/27 01:56:31;;;;;;;26.50;19.33;;;18.60;82.60;;;;;;5101627;28;20179;-91
2021/09/27 01:59:02;;;;;;;22.70;16.50;;;18.70;82.70;;;;;;5097261;28;20164;-91
2021/09/27 02:01:31;;;;;;;24.63;15.80;;;18.90;82.00;;;;;;5077755;28;20172;-91
2021/09/27 02:04:16;;;;;;;29.63;15.85;;;19.00;81.40;;;;;;5102530;28;20207;-90
2021/09/27 02:06:48;;;;;;;21.40;14.68;;;18.90;81.20;;;;;;5088937;28;20183;-90
2021/09/27 02:09:27;;;;;;;21.83;15.45;;;18.90;81.30;;;;;;5105566;28;20175;-91
2021/09/27 02:12:02;;;;;;;23.00;15.40;;;18.90;81.50;;;;;;5102407;28;20175;-91
2021/09/27 02:14:57;;;;;;;24.55;15.98;;;18.80;81.70;;;;;;5102425;28;20216;-90
2021/09/27 02:17:34;;;;;;;22.88;15.07;;;18.80;81.70;;;;;;5107547;28;20206;-90
2021/09/27 02:20:25;;;;;;;20.52;14.77;;;18.80;81.70;;;;;;5123885;28;20175;-90
2021/09/27 02:23:04;;;;;;;28.23;15.70;;;18.80;81.80;;;;;;5120013;28;20195;-91
2021/09/27 02:25:34;;;;;;;25.10;16.52;;;18.70;82.00;;;;;;5120846;28;20171;-91
2021/09/27 02:28:08;;;;;;;23.88;14.57;;;18.70;82.00;;;;;;5124633;28;20175;-90
2021/09/27 02:30:50;;;;;;;28.33;18.00;;;18.70;82.10;;;;;;5122260;28;20196;-91
2021/09/27 02:33:24;;;;;;;26.73;16.73;;;18.80;82.00;;;;;;5120451;28;20244;-90
2021/09/27 02:36:28;;;;;;;26.20;15.23;;;18.70;82.00;;;;;;5104212;28;20194;-91
2021/09/27 02:39:09;;;;;;;26.90;15.70;;;18.70;82.10;;;;;;5102500;28;20174;-91
2021/09/27 02:42:20;;;;;;;21.55;14.75;;;18.60;82.10;;;;;;5120621;28;20179;-91
2021/09/27 02:44:46;;;;;;;25.88;15.48;;;18.70;82.20;;;;;;5084953;28;20247;-91
2021/09/27 02:47:19;;;;;;;30.48;19.65;;;18.70;82.10;;;;;;5119452;28;20181;-91
2021/09/27 02:49:45;;;;;;;28.10;16.85;;;18.70;82.00;;;;;;5120201;28;20185;-91
2021/09/27 02:52:14;;;;;;;24.48;15.85;;;18.70;82.10;;;;;;5125370;28;20206;-90
2021/09/27 02:54:55;;;;;;;25.80;15.25;;;18.60;81.90;;;;;;5120288;28;20179;-91
2021/09/27 02:57:44;;;;;;;26.33;17.15;;;18.60;82.00;;;;;;5122292;28;20163;-92
2021/09/27 03:00:22;;;;;;;31.60;15.32;;;18.60;82.00;;;;;;5113074;28;20230;-92
2021/09/27 03:03:11;;;;;;;27.25;16.70;;;18.50;82.00;;;;;;5119994;28;20198;-91
2021/09/27 03:06:23;;;;;;;23.10;14.60;;;18.30;82.20;;;;;;5101125;28;20172;-92
2021/09/27 03:09:01;;;;;;;23.70;16.40;;;18.40;82.30;;;;;;5064687;28;20189;-90
2021/09/27 03:12:01;;;;;;;31.42;15.07;;;18.40;82.20;;;;;;5099471;28;20163;-91
2021/09/27 03:14:52;;;;;;;28.17;15.65;;;18.30;82.10;;;;;;5097294;28;20202;-91
2021/09/27 03:17:33;;;;;;;23.33;15.73;;;18.30;82.10;;;;;;5097181;28;20183;-92
2021/09/27 03:20:18;;;;;;;25.55;16.85;;;18.40;81.80;;;;;;5112041;28;20172;-92
2021/09/27 03:23:02;;;;;;;24.77;15.85;;;18.40;81.70;;;;;;5115713;28;20704;-91
2021/09/27 03:25:39;;;;;;;26.77;17.15;;;18.20;81.70;;;;;;5113967;28;20175;-91
2021/09/27 03:28:14;;;;;;;29.30;16.80;;;18.10;82.20;;;;;;5116317;28;20174;-90
2021/09/27 03:30:59;;;;;;;25.70;15.93;;;18.10;82.30;;;;;;5115352;28;20277;-91
2021/09/27 03:33:58;;;;;;;28.40;17.08;;;18.20;82.20;;;;;;5113560;28;20732;-91
2021/09/27 03:36:24;;;;;;;29.40;15.40;;;18.20;82.00;;;;;;5110922;28;20179;-91
2021/09/27 03:39:16;;;;;;;22.47;15.53;;;18.20;81.70;;;;;;5122189;28;20220;-91
2021/09/27 03:41:47;;;;;;;27.27;17.70;;;18.20;81.80;;;;;;5090141;28;20549;-91
2021/09/27 03:44:13;;;;;;;29.50;16.48;;;18.30;81.60;;;;;;5103584;28;20215;-91
2021/09/27 03:47:09;;;;;;;29.60;16.47;;;18.30;81.40;;;;;;5104700;28;20296;-91
2021/09/27 03:49:51;;;;;;;27.77;16.45;;;18.30;81.50;;;;;;5111046;28;20283;-92
2021/09/27 03:52:31;;;;;;;29.67;19.30;;;18.10;81.50;;;;;;5116733;28;20171;-91
2021/09/27 03:55:28;;;;;;;29.42;16.73;;;18.10;81.70;;;;;;5117724;28;20522;-92
2021/09/27 03:58:23;;;;;;;28.58;16.55;;;18.20;81.60;;;;;;5088728;28;20182;-91
2021/09/27 04:00:56;;;;;;;23.50;15.52;;;18.10;81.60;;;;;;5124917;28;20174;-91
2021/09/27 04:03:47;;;;;;;25.20;15.50;;;18.10;81.70;;;;;;5122816;28;20310;-91
2021/09/27 04:06:34;;;;;;;26.88;16.15;;;18.00;81.50;;;;;;5108017;28;20198;-91
2021/09/27 04:09:05;;;;;;;25.40;16.15;;;18.10;81.70;;;;;;5105469;28;20170;-92
2021/09/27 04:11:38;;;;;;;27.67;17.77;;;18.00;81.50;;;;;;5111134;28;20549;-92
2021/09/27 04:14:19;;;;;;;30.48;21.00;;;18.00;81.70;;;;;;5092500;28;20213;-91
2021/09/27 04:16:57;;;;;;;29.50;17.38;;;17.90;82.00;;;;;;5106729;28;20191;-91
2021/09/27 04:19:29;;;;;;;26.90;17.17;;;18.00;82.10;;;;;;5123280;28;20191;-91
2021/09/27 04:22:19;;;;;;;28.25;17.05;;;18.00;82.00;;;;;;5125937;28;20240;-91
2021/09/27 04:25:12;;;;;;;31.05;16.90;;;17.90;82.10;;;;;;5122876;28;20207;-91
2021/09/27 04:28:15;;;;;;;22.20;15.55;;;17.90;82.50;;;;;;5107352;28;20189;-91
2021/09/27 04:30:49;;;;;;;25.80;16.08;;;17.90;82.90;;;;;;5116683;28;20630;-91
2021/09/27 04:33:21;;;;;;;28.38;17.75;;;17.70;83.10;;;;;;5104715;28;20198;-91
2021/09/27 04:36:05;;;;;;;28.48;16.80;;;17.80;83.30;;;;;;5106467;28;20183;-91
2021/09/27 04:38:32;;;;;;;33.38;18.00;;;17.70;83.30;;;;;;5110778;28;20175;-92
2021/09/27 04:41:33;;;;;;;27.58;17.42;;;17.80;83.60;;;;;;5108169;28;20201;-91
2021/09/27 04:44:20;;;;;;;29.67;18.30;;;17.80;83.70;;;;;;5121677;28;20260;-91
2021/09/27 04:47:28;;;;;;;23.45;17.02;;;17.80;83.70;;;;;;5107608;28;20199;-92
2021/09/27 04:50:14;;;;;;;32.72;18.88;;;17.70;83.80;;;;;;5050091;28;20195;-91
2021/09/27 04:53:17;;;;;;;24.30;16.58;;;17.70;83.90;;;;;;5099630;28;20278;-91
2021/09/27 04:56:11;;;;;;;34.90;18.10;;;17.70;84.30;;;;;;5102700;28;20176;-90
2021/09/27 04:59:03;;;;;;;29.88;17.63;;;17.60;84.50;;;;;;5093055;28;20203;-91
2021/09/27 05:02:03;;;;;;;25.88;16.67;;;17.60;84.70;;;;;;5102011;28;20194;-93
2021/09/27 05:04:50;;;;;;;25.15;16.67;;;17.70;84.70;;;;;;5136842;28;20219;-92
2021/09/27 05:07:53;;;;;;;27.88;15.43;;;17.60;84.50;;;;;;5139184;28;20171;-92
2021/09/27 05:10:58;;;;;;;27.20;18.25;;;17.60;84.80;;;;;;5134275;28;20175;-93
2021/09/27 05:13:26;;;;;;;27.85;17.65;;;17.60;85.00;;;;;;5122479;28;20187;-92
2021/09/27 05:16:21;;;;;;;33.78;16.75;;;17.60;85.90;;;;;;5122816;28;20186;-91
2021/09/27 05:19:04;;;;;;;26.83;16.73;;;17.70;85.00;;;;;;5123084;28;20170;-90
2021/09/27 05:21:57;;;;;;;27.83;18.67;;;17.50;85.00;;;;;;5120297;28;20171;-92
2021/09/27 05:25:12;;;;;;;27.08;18.40;;;17.50;85.40;;;;;;5122963;28;20211;-91
2021/09/27 05:27:53;;;;;;;27.83;17.98;;;17.50;85.70;;;;;;5121317;28;20195;-92
2021/09/27 05:30:41;;;;;;;27.20;18.50;;;17.50;85.70;;;;;;5119653;28;20167;-92
2021/09/27 05:33:19;;;;;;;28.73;15.43;;;17.50;85.90;;;;;;5086256;28;20216;-92
2021/09/27 05:35:53;;;;;;;25.02;17.02;;;17.50;86.10;;;;;;5114596;28;20186;-92
2021/09/27 05:38:31;;;;;;;31.40;17.55;;;17.60;85.90;;;;;;5111694;28;20178;-92
2021/09/27 05:41:17;;;;;;;27.75;17.75;;;17.80;85.70;;;;;;5106923;28;20178;-91
2021/09/27 05:44:14;;;;;;;26.90;17.52;;;17.70;85.40;;;;;;5105568;28;20222;-91
2021/09/27 05:46:58;;;;;;;30.42;18.05;;;17.80;85.30;;;;;;5104598;28;20167;-91
2021/09/27 05:49:39;;;;;;;24.13;16.58;;;17.80;85.20;;;;;;5107674;28;20174;-92
2021/09/27 05:52:08;;;;;;;26.40;18.00;;;17.90;85.10;;;;;;5101835;28;20246;-92
2021/09/27 05:54:49;;;;;;;25.10;18.25;;;17.80;85.00;;;;;;5102683;28;20187;-92
2021/09/27 05:57:38;;;;;;;26.85;18.58;;;17.80;85.40;;;;;;5090415;28;20182;-91
2021/09/27 06:00:29;;;;;;;23.35;16.38;;;17.70;85.70;;;;;;5100498;28;20181;-92
2021/09/27 06:03:01;;;;;;;29.55;17.40;;;17.70;86.00;;;;;;5094786;28;20199;-92
2021/09/27 06:05:26;;;;;;;23.58;16.60;;;17.70;86.00;;;;;;5103696;28;20205;-92
2021/09/27 06:08:18;;;;;;;26.40;16.23;;;17.70;86.10;;;;;;5103913;28;20186;-92
2021/09/27 06:11:07;;;;;;;27.55;17.50;;;17.70;86.00;;;;;;5102238;28;20220;-92
2021/09/27 06:13:37;;;;;;;27.75;15.73;;;17.70;86.00;;;;;;5061187;28;20207;-91
2021/09/27 06:16:31;;;;;;;32.20;18.77;;;17.70;86.30;;;;;;5112037;28;20197;-92
2021/09/27 06:19:39;;;;;;;28.50;18.63;;;17.50;86.70;;;;;;5120750;28;20721;-92
2021/09/27 06:22:29;;;;;;;28.95;18.17;;;17.60;86.90;;;;;;5088190;28;20179;-91
2021/09/27 06:25:00;;;;;;;33.08;19.45;;;17.80;86.70;;;;;;5100368;28;20676;-92
2021/09/27 06:27:48;;;;;;;29.08;17.83;;;17.70;86.40;;;;;;5105799;28;20619;-92
2021/09/27 06:30:39;;;;;;;25.40;17.65;;;17.90;86.20;;;;;;5105333;28;20202;-93
2021/09/27 06:33:23;;;;;;;27.67;17.05;;;17.80;86.10;;;;;;5085258;28;20547;-92
2021/09/27 06:35:52;;;;;;;27.80;16.92;;;18.00;86.10;;;;;;5087378;28;20239;-92
2021/09/27 06:38:24;;;;;;;28.00;18.52;;;18.00;85.80;;;;;;5111729;28;20179;-92
2021/09/27 06:40:51;;;;;;;26.85;17.23;;;18.00;85.70;;;;;;5108785;28;20179;-92
2021/09/27 06:43:20;;;;;;;22.85;16.70;;;18.00;85.60;;;;;;5105104;28;20215;-93
2021/09/27 06:45:47;;;;;;;29.05;16.98;;;18.10;85.70;;;;;;5111062;28;20175;-93
2021/09/27 06:48:13;;;;;;;22.60;15.70;;;18.20;85.50;;;;;;5106404;28;20183;-92
2021/09/27 06:50:38;;;;;;;26.87;17.20;;;18.20;85.20;;;;;;5107833;28;20179;-93
2021/09/27 06:53:04;;;;;;;27.90;16.37;;;18.20;85.20;;;;;;5112408;28;20558;-91
2021/09/27 06:55:30;;;;;;;24.88;15.32;;;18.30;85.30;;;;;;5108287;28;20523;-93
2021/09/27 06:57:56;;;;;;;22.60;15.73;;;18.30;85.10;;;;;;5106962;28;20182;-93
2021/09/27 07:00:22;;;;;;;22.77;13.10;;;18.50;84.90;;;;;;5107948;28;20424;-92
2021/09/27 07:02:47;;;;;;;22.50;14.37;;;18.50;84.50;;;;;;5121412;28;20290;-92
2021/09/27 07:05:13;;;;;;;24.40;13.87;;;18.40;84.50;;;;;;5121216;28;20245;-92
2021/09/27 07:07:40;;;;;;;22.30;15.47;;;18.40;84.60;;;;;;5117004;28;20243;-92
2021/09/27 07:10:09;;;;;;;17.85;13.15;;;18.40;84.60;;;;;;5102613;28;20680;-91
2021/09/27 07:12:38;;;;;;;22.38;14.45;;;18.30;84.90;;;;;;5100311;28;20248;-92
2021/09/27 07:15:04;;;;;;;21.02;13.98;;;18.40;85.10;;;;;;5119684;28;20175;-92
2021/09/27 07:17:30;;;;;;;19.05;14.05;;;18.40;84.90;;;;;;5118633;28;20190;-92
2021/09/27 07:19:56;;;;;;;19.90;13.70;;;18.40;84.90;;;;;;5117446;28;20179;-92
2021/09/27 07:22:23;;;;;;;20.40;13.83;;;18.50;85.00;;;;;;5112425;28;20531;-92
2021/09/27 07:24:48;;;;;;;20.90;14.32;;;18.60;84.60;;;;;;5113076;28;20647;-92
2021/09/27 07:27:14;;;;;;;23.10;14.30;;;18.60;84.60;;;;;;5100414;28;20213;-91
2021/09/27 07:29:42;;;;;;;20.67;13.73;;;18.70;84.50;;;;;;5085811;28;20176;-92
2021/09/27 07:32:07;;;;;;;18.77;12.68;;;18.60;84.30;;;;;;5114171;28;20179;-91
2021/09/27 07:34:33;;;;;;;22.70;12.83;;;18.80;84.10;;;;;;5118867;28;20232;-92
2021/09/27 07:37:04;;;;;;;23.40;12.20;;;18.80;84.00;;;;;;5112851;28;20971;-91
2021/09/27 07:39:31;;;;;;;18.70;11.80;;;18.90;83.90;;;;;;5100943;28;20167;-91
2021/09/27 07:42:00;;;;;;;23.67;13.18;;;18.90;83.60;;;;;;5099589;28;20234;-92
2021/09/27 07:44:26;;;;;;;17.83;12.65;;;18.90;83.30;;;;;;5101977;28;20207;-91
2021/09/27 07:46:53;;;;;;;17.88;12.68;;;18.90;83.50;;;;;;5118000;28;20222;-91
2021/09/27 07:49:19;;;;;;;18.93;13.00;;;18.80;83.50;;;;;;5108260;28;20650;-93
2021/09/27 07:51:44;;;;;;;20.03;13.80;;;18.80;83.90;;;;;;5119102;28;20167;-93
2021/09/27 07:54:10;;;;;;;18.03;11.43;;;18.90;83.80;;;;;;5118227;28;20289;-93
2021/09/27 07:56:36;;;;;;;18.17;11.63;;;19.10;83.50;;;;;;5121189;28;20202;-93
2021/09/27 07:59:06;;;;;;;24.75;12.68;;;19.20;83.10;;;;;;5103439;28;20183;-93
2021/09/27 08:01:33;;;;;;;17.58;12.25;;;19.30;82.50;;;;;;5102510;28;20686;-92
2021/09/27 08:04:00;;;;;;;25.02;11.93;;;19.40;82.50;;;;;;5119840;28;20202;-93
2021/09/27 08:06:25;;;;;;;10.38;9.15;;;19.30;82.20;;;;;;5101052;28;20207;-93
2021/09/27 08:08:51;;;;;;;16.53;11.00;;;19.60;82.10;;;;;;5103648;28;20186;-93
2021/09/27 08:11:17;;;;;;;12.90;9.50;;;19.70;81.40;;;;;;5115404;28;20183;-93
2021/09/27 08:13:43;;;;;;;11.87;8.17;;;20.00;80.60;;;;;;5120333;28;20199;-93
2021/09/27 08:16:09;;;;;;;10.20;7.40;;;20.20;79.40;;;;;;5114263;28;20180;-93
2021/09/27 08:18:35;;;;;;;7.77;6.53;;;20.10;77.80;;;;;;5102373;28;20462;-93
2021/09/27 08:21:10;;;;;;;8.05;7.25;;;20.20;77.50;;;;;;5103006;28;20497;-93
2021/09/27 08:23:37;;;;;;;7.85;7.03;;;20.50;77.00;;;;;;5101922;28;20210;-94
2021/09/27 08:26:04;;;;;;;9.82;6.78;;;20.60;75.50;;;;;;5102959;28;20171;-93
2021/09/27 08:28:31;;;;;;;8.65;5.50;;;20.90;74.60;;;;;;5124929;28;20202;-92
2021/09/27 08:31:00;;;;;;;6.32;5.35;;;20.80;73.70;;;;;;5105603;28;20541;-92
2021/09/27 08:33:27;;;;;;;7.60;4.72;;;20.90;73.30;;;;;;5106196;28;20195;-94
2021/09/27 08:35:55;;;;;;;8.95;5.20;;;21.10;72.90;;;;;;5103677;28;20183;-93
2021/09/27 08:38:23;;;;;;;6.45;4.90;;;21.10;72.20;;;;;;5103450;28;20205;-93
2021/09/27 08:41:02;;;;;;;7.18;5.25;;;21.30;71.80;;;;;;5108604;28;20277;-93
2021/09/27 08:43:39;;;;;;;6.50;4.85;;;21.30;70.80;;;;;;5101722;28;20215;-93
2021/09/27 08:46:16;;;;;;;6.18;4.25;;;21.30;70.80;;;;;;5093714;28;20257;-93
2021/09/27 08:49:08;;;;;;;6.68;4.07;;;21.50;70.50;;;;;;5109548;28;20182;-93
2021/09/27 08:51:37;;;;;;;5.40;3.70;;;21.60;70.20;;;;;;5120698;28;20182;-93
2021/09/27 08:54:06;;;;;;;8.57;4.97;;;21.60;69.60;;;;;;5124913;28;20192;-93
2021/09/27 08:56:36;;;;;;;6.25;4.72;;;21.40;68.80;;;;;;5122176;28;20213;-93
2021/09/27 08:59:27;;;;;;;8.63;3.55;;;21.30;69.40;;;;;;5123333;28;20194;-94
2021/09/27 09:02:00;;;;;;;8.48;4.65;;;21.40;69.20;;;;;;5111690;28;20183;-93
2021/09/27 09:04:50;;;;;;;7.00;4.75;;;21.50;69.20;;;;;;5101956;28;20218;-93
2021/09/27 09:07:19;;;;;;;5.82;4.35;;;21.50;68.90;;;;;;5081256;28;20263;-93
2021/09/27 09:10:04;;;;;;;8.70;3.90;;;21.00;69.00;;;;;;5105593;28;20183;-93
2021/09/27 09:12:51;;;;;;;6.15;4.90;;;20.70;70.00;;;;;;5124926;28;20256;-93
2021/09/27 09:15:24;;;;;;;6.07;4.30;;;20.70;70.70;;;;;;5121943;28;20163;-93
2021/09/27 09:18:09;;;;;;;7.28;4.35;;;20.70;71.40;;;;;;5113770;28;20182;-92
2021/09/27 09:20:45;;;;;;;9.95;4.57;;;20.90;71.20;;;;;;5111790;28;20240;-93
2021/09/27 09:23:48;;;;;;;4.90;3.40;;;20.90;70.70;;;;;;5124941;28;20218;-93
2021/09/27 09:26:17;;;;;;;4.45;3.83;;;20.70;70.10;;;;;;5107649;28;20186;-92
2021/09/27 09:28:48;;;;;;;6.13;3.80;;;20.80;70.80;;;;;;5125734;28;20209;-93
2021/09/27 09:31:34;;;;;;;4.20;3.80;;;20.80;71.10;;;;;;5118323;28;20183;-93
2021/09/27 09:34:27;;;;;;;6.25;4.80;;;20.80;70.70;;;;;;5108815;28;20195;-93
2021/09/27 09:37:07;;;;;;;6.35;3.65;;;20.70;70.90;;;;;;5086906;28;20521;-93
2021/09/27 09:39:54;;;;;;;7.85;3.67;;;20.50;70.60;;;;;;5108242;28;20189;-93
2021/09/27 09:42:20;;;;;;;5.45;3.60;;;20.20;71.30;;;;;;5105962;28;20214;-92
2021/09/27 09:44:49;;;;;;;4.00;3.70;;;20.50;71.50;;;;;;5122228;28;20206;-93
2021/09/27 09:47:27;;;;;;;4.47;3.90;;;20.80;70.90;;;;;;5102275;28;20206;-93
2021/09/27 09:50:20;;;;;;;10.57;5.80;;;20.90;70.50;;;;;;5105003;28;20164;-93
2021/09/27 09:52:50;;;;;;;8.75;3.78;;;20.90;69.80;;;;;;5111264;28;20281;-93
2021/09/27 09:55:31;;;;;;;3.97;3.20;;;21.00;69.80;;;;;;5106328;28;20269;-93
2021/09/27 09:58:00;;;;;;;6.50;3.53;;;21.00;69.70;;;;;;5104535;28;20247;-93
2021/09/27 10:00:54;;;;;;;5.47;3.85;;;21.00;69.40;;;;;;5102512;28;20240;-93
2021/09/27 10:03:29;;;;;;;4.70;3.33;;;20.80;69.60;;;;;;5097968;28;20202;-93
2021/09/27 10:06:05;;;;;;;7.13;3.40;;;21.10;69.70;;;;;;5101691;28;20258;-93
2021/09/27 10:08:32;;;;;;;5.20;3.60;;;21.00;69.90;;;;;;5082072;28;20182;-93
2021/09/27 10:11:06;;;;;;;9.00;3.60;;;21.00;69.80;;;;;;5085295;28;20233;-93
2021/09/27 10:13:52;;;;;;;6.40;3.50;;;20.90;69.40;;;;;;5107726;28;20260;-93
2021/09/27 10:16:29;;;;;;;3.60;3.30;;;21.10;69.60;;;;;;5119422;28;20178;-90
2021/09/27 10:19:37;;;;;;;3.30;2.92;;;21.00;69.20;;;;;;5102846;28;20168;-93
2021/09/27 10:22:11;;;;;;;6.13;3.05;;;20.90;69.50;;;;;;5105429;28;20183;-93
2021/09/27 10:24:40;;;;;;;7.22;3.72;;;21.30;68.90;;;;;;5122193;28;20197;-92
2021/09/27 10:27:30;;;;;;;8.70;3.97;;;21.30;68.50;;;;;;5110246;28;20243;-92
2021/09/27 10:29:58;;;;;;;8.00;2.80;;;21.20;68.50;;;;;;5099047;28;20233;-93
2021/09/27 10:32:58;;;;;;;5.25;3.05;;;21.00;68.50;;;;;;5108973;28;20174;-93
2021/09/27 10:35:29;;;;;;;6.97;3.38;;;21.10;68.40;;;;;;5094330;28;20214;-92
2021/09/27 10:38:22;;;;;;;5.97;3.92;;;21.00;68.70;;;;;;5108752;28;20536;-93
2021/09/27 10:40:51;;;;;;;10.60;5.53;;;21.10;68.80;;;;;;5112954;28;20264;-93
2021/09/27 10:43:21;;;;;;;13.70;4.20;;;21.20;68.70;;;;;;5119056;28;20293;-93
2021/09/27 10:45:56;;;;;;;9.25;4.55;;;21.20;68.60;;;;;;5117162;28;20185;-93
2021/09/27 10:48:23;;;;;;;5.35;3.30;;;21.30;68.30;;;;;;5123807;28;20174;-93
2021/09/27 10:51:03;;;;;;;4.60;3.33;;;21.40;68.20;;;;;;5108948;28;20244;-93
2021/09/27 10:53:30;;;;;;;7.72;3.83;;;21.40;67.60;;;;;;5124276;28;20210;-93
2021/09/27 10:56:33;;;;;;;4.43;2.83;;;21.30;67.60;;;;;;5127124;28;20183;-93
2021/09/27 10:59:25;;;;;;;6.65;2.85;;;21.60;67.20;;;;;;5125660;28;20170;-93
2021/09/27 11:01:53;;;;;;;6.68;2.92;;;21.20;67.40;;;;;;5124074;28;20183;-93
2021/09/27 11:04:22;;;;;;;3.60;2.70;;;21.20;67.90;;;;;;5124949;28;20209;-93
2021/09/27 11:07:12;;;;;;;4.28;2.70;;;21.30;68.00;;;;;;5082897;28;20176;-93
2021/09/27 11:09:38;;;;;;;8.07;2.70;;;21.60;67.20;;;;;;5105131;28;20175;-93
2021/09/27 11:12:15;;;;;;;10.17;3.13;;;21.70;66.70;;;;;;5123402;28;20273;-93
2021/09/27 11:14:50;;;;;;;4.20;2.90;;;21.40;66.90;;;;;;5104179;28;20415;-93
2021/09/27 11:17:41;;;;;;;4.45;3.13;;;21.60;67.40;;;;;;5117140;28;20169;-93
2021/09/27 11:20:33;;;;;;;7.20;3.37;;;21.50;66.80;;;;;;5115553;28;20214;-93
2021/09/27 11:23:01;;;;;;;5.00;3.40;;;21.30;67.30;;;;;;5104073;28;20470;-93
2021/09/27 11:25:26;;;;;;;5.87;3.63;;;21.30;68.30;;;;;;5105096;28;20424;-93
2021/09/27 11:28:07;;;;;;;6.57;2.77;;;21.50;69.80;;;;;;5121775;28;20425;-93
2021/09/27 11:30:39;;;;;;;5.50;3.13;;;21.10;70.40;;;;;;5103588;28;20202;-92
2021/09/27 11:33:39;;;;;;;9.37;2.97;;;21.10;71.10;;;;;;5105896;28;20428;-93
2021/09/27 11:36:14;;;;;;;8.23;5.10;;;21.10;70.90;;;;;;5109300;28;20412;-94
2021/09/27 11:38:42;;;;;;;8.27;2.80;;;21.40;70.90;;;;;;5105737;28;20447;-92
2021/09/27 11:41:11;;;;;;;7.70;3.10;;;21.50;70.30;;;;;;5103422;28;20461;-93
2021/09/27 11:44:04;;;;;;;5.47;2.87;;;21.40;69.60;;;;;;5119396;28;20979;-93
2021/09/27 11:47:08;;;;;;;13.20;3.33;;;21.60;69.50;;;;;;5102603;28;20417;-93
2021/09/27 11:52:42;;;;;;;3.47;2.93;;;21.80;69.40;;;;;;5105361;28;20506;-93
2021/09/27 11:55:12;;;;;;;3.20;2.90;;;21.60;69.50;;;;;;5122152;28;20908;-93
2021/09/27 11:58:05;;;;;;;4.70;2.43;;;21.70;69.90;;;;;;5120064;28;20469;-93
2021/09/27 12:00:41;;;;;;;5.67;2.53;;;21.80;69.60;;;;;;5109765;28;20445;-93
2021/09/27 12:03:25;;;;;;;9.73;2.77;;;21.90;69.40;;;;;;5104188;28;20482;-93
2021/09/27 12:06:01;;;;;;;3.50;2.60;;;21.90;69.50;;;;;;5104585;28;21073;-93
2021/09/27 12:08:34;;;;;;;3.03;2.70;;;22.00;68.80;;;;;;5121758;28;20420;-90
2021/09/27 12:11:08;;;;;;;3.83;2.67;;;22.00;68.60;;;;;;5098545;28;20606;-92
2021/09/27 12:13:44;;;;;;;4.80;2.73;;;21.90;69.40;;;;;;5103126;28;20445;-91
2021/09/27 12:16:23;;;;;;;6.97;2.70;;;21.80;70.20;;;;;;5113115;28;20453;-91
2021/09/27 12:18:56;;;;;;;3.93;2.83;;;21.80;71.00;;;;;;5095781;28;20421;-91
2021/09/27 12:21:38;;;;;;;5.00;3.57;;;21.60;72.70;;;;;;5122325;28;20429;-91
2021/09/27 12:24:21;;;;;;;4.80;3.50;;;21.50;74.40;;;;;;5131143;27;20468;-91
2021/09/27 12:27:12;;;;;;;4.20;3.63;;;21.10;75.50;;;;;;5125227;28;20431;-91
2021/09/27 12:29:56;;;;;;;3.78;2.53;;;21.10;76.60;;;;;;5126591;28;20923;-91
2021/09/27 12:32:31;;;;;;;3.75;2.58;;;20.40;77.50;;;;;;5112050;28;20175;-91
2021/09/27 12:35:02;;;;;;;5.20;2.30;;;20.20;78.60;;;;;;5107660;28;20162;-92
2021/09/27 12:37:39;;;;;;;4.85;2.55;;;19.90;80.20;;;;;;5110137;28;20172;-91
2021/09/27 12:40:09;;;;;;;3.28;2.35;;;19.70;81.50;;;;;;5091417;28;20519;-91
2021/09/27 12:42:47;;;;;;;9.23;2.60;;;19.50;82.50;;;;;;5088560;28;20211;-91
2021/09/27 12:45:29;;;;;;;3.40;2.83;;;19.50;83.00;;;;;;5091474;28;20199;-91
2021/09/27 12:48:00;;;;;;;3.22;2.90;;;19.20;83.20;;;;;;5104937;28;20176;-91
2021/09/27 12:50:30;;;;;;;3.42;2.53;;;19.30;83.50;;;;;;5087431;28;20175;-91
2021/09/27 12:53:00;;;;;;;2.95;2.47;;;19.30;83.50;;;;;;5097477;28;20223;-92
2021/09/27 12:55:35;;;;;;;5.13;2.72;;;19.60;83.10;;;;;;5091102;28;20207;-91
2021/09/27 12:58:08;;;;;;;3.00;2.35;;;19.60;82.20;;;;;;5096519;28;20175;-91
2021/09/27 13:00:41;;;;;;;4.45;2.45;;;19.70;81.80;;;;;;5093418;28;20175;-91
2021/09/27 13:03:09;;;;;;;4.07;2.10;;;19.70;81.70;;;;;;5109848;28;20263;-91
2021/09/27 13:05:52;;;;;;;3.05;2.42;;;19.90;81.80;;;;;;5092706;28;20267;-91
2021/09/27 13:08:44;;;;;;;2.75;2.55;;;19.90;81.70;;;;;;5103243;28;20179;-91
2021/09/27 13:11:26;;;;;;;2.97;1.77;;;19.90;82.10;;;;;;5050764;28;20191;-90
2021/09/27 13:14:13;;;;;;;2.95;2.40;;;19.90;82.10;;;;;;5086572;28;20195;-90
2021/09/27 13:16:40;;;;;;;3.08;2.47;;;19.80;82.10;;;;;;5075509;28;20207;-90
2021/09/27 13:19:11;;;;;;;2.53;2.35;;;19.70;82.80;;;;;;5104857;28;20214;-93
2021/09/27 13:21:46;;;;;;;2.90;2.70;;;19.80;83.20;;;;;;5106265;28;20172;-93
2021/09/27 13:24:21;;;;;;;7.90;2.70;;;19.80;83.60;;;;;;5107138;28;20298;-93
2021/09/27 13:26:55;;;;;;;5.03;3.22;;;19.80;83.60;;;;;;5112216;28;20181;-93
2021/09/27 13:29:49;;;;;;;4.18;2.78;;;19.60;84.00;;;;;;5111384;28;20164;-93
2021/09/27 13:32:18;;;;;;;4.40;3.15;;;19.40;84.80;;;;;;5117058;28;20167;-94
2021/09/27 13:35:34;;;;;;;2.90;2.15;;;19.40;85.00;;;;;;5119051;28;20176;-95